Time;durP1;ratioP1;P1;durP2;ratioP2;P2;SDS_P1;SDS_P2;PMS_P1;PMS_P2;Temp;Humidity;BMP_temperature;BMP_pressure;BME280_temperature;BME280_humidity;BME280_pressure;Samples;Min_cycle;Max_cycle;Signal;HPM_P1;HPM_P2
2024/02/02 00:02:09;;;;;;;15.18;9.25;;;;;;;5.47;100.00;101201.88;5051175;28;20041;-42
2024/02/02 00:04:37;;;;;;;17.23;10.40;;;;;;;5.33;100.00;101204.00;5051248;28;20049;-45
2024/02/02 00:07:06;;;;;;;16.42;9.93;;;;;;;5.42;100.00;101209.06;5050799;28;20409;-42
2024/02/02 00:09:35;;;;;;;17.58;10.07;;;;;;;5.47;100.00;101201.88;5045334;28;20049;-43
2024/02/02 00:12:06;;;;;;;16.27;10.15;;;;;;;5.39;100.00;101199.41;5031283;28;20383;-44
2024/02/02 00:14:35;;;;;;;15.05;10.00;;;;;;;5.38;100.00;101202.09;5031133;28;20100;-44
2024/02/02 00:17:04;;;;;;;16.63;10.02;;;;;;;5.42;100.00;101204.66;5030974;28;20724;-44
2024/02/02 00:19:33;;;;;;;18.25;10.32;;;;;;;5.34;100.00;101200.44;5030858;28;20056;-43
2024/02/02 00:22:01;;;;;;;17.88;9.43;;;;;;;5.39;100.00;101215.28;5030943;28;20045;-42
2024/02/02 00:24:30;;;;;;;15.05;8.93;;;;;;;5.37;100.00;101205.66;5031069;28;20045;-44
2024/02/02 00:27:00;;;;;;;15.65;9.55;;;;;;;5.37;100.00;101205.66;5031037;28;20132;-44
2024/02/02 00:29:29;;;;;;;16.02;10.10;;;;;;;5.33;100.00;101204.00;5031020;28;20053;-44
2024/02/02 00:31:58;;;;;;;16.10;8.70;;;;;;;5.29;100.00;101207.59;5030881;28;20054;-43
2024/02/02 00:34:26;;;;;;;15.30;10.00;;;;;;;5.16;100.00;101204.38;5030740;28;20096;-44
2024/02/02 00:36:55;;;;;;;16.92;9.20;;;;;;;5.20;100.00;101205.16;5030754;28;20049;-41
2024/02/02 00:39:23;;;;;;;14.57;8.93;;;;;;;5.10;100.00;101212.44;5030846;28;20056;-44
2024/02/02 00:41:52;;;;;;;16.90;9.85;;;;;;;5.20;100.00;101213.09;5030803;28;20505;-44
2024/02/02 00:44:22;;;;;;;16.05;10.27;;;;;;;5.23;100.00;101213.06;5030503;28;20053;-43
2024/02/02 00:46:50;;;;;;;16.20;9.57;;;;;;;5.16;100.00;101223.75;5030620;28;20046;-43
2024/02/02 00:49:20;;;;;;;15.63;9.05;;;;;;;5.07;100.00;101215.16;5030996;28;20571;-44
2024/02/02 00:51:48;;;;;;;16.15;9.13;;;;;;;5.14;100.00;101228.22;5030775;28;20080;-46
2024/02/02 00:54:17;;;;;;;14.68;9.07;;;;;;;5.07;100.00;101231.03;5030675;28;20046;-43
2024/02/02 00:56:45;;;;;;;16.90;9.82;;;;;;;4.89;100.00;101227.00;5030735;28;20475;-43
2024/02/02 00:59:14;;;;;;;14.55;9.27;;;;;;;5.06;100.00;101226.66;5030683;28;20150;-43
2024/02/02 01:01:43;;;;;;;13.27;8.43;;;;;;;5.04;100.00;101226.69;5026512;28;20060;-43
2024/02/02 01:04:12;;;;;;;13.27;8.93;;;;;;;4.97;100.00;101218.91;5028854;28;20045;-43
2024/02/02 01:06:40;;;;;;;14.90;8.48;;;;;;;4.89;100.00;101221.72;5030494;28;20801;-44
2024/02/02 01:09:10;;;;;;;12.27;8.23;;;;;;;5.01;100.00;101223.22;5028837;28;20095;-43
2024/02/02 01:11:40;;;;;;;14.32;8.55;;;;;;;4.90;100.00;101210.25;5030404;28;20052;-45
2024/02/02 01:14:08;;;;;;;15.18;8.43;;;;;;;4.88;100.00;101218.19;5030177;28;20111;-45
2024/02/02 01:16:37;;;;;;;15.15;8.50;;;;;;;4.93;100.00;101220.78;5030533;28;20053;-44
2024/02/02 01:19:06;;;;;;;12.95;7.35;;;;;;;4.87;100.00;101220.88;5022562;28;20359;-44
2024/02/02 01:21:36;;;;;;;15.55;7.80;;;;;;;4.98;100.00;101213.59;5033612;28;20041;-43
2024/02/02 01:24:05;;;;;;;12.38;7.15;;;;;;;4.93;100.00;101211.97;5027987;28;20570;-43
2024/02/02 01:26:33;;;;;;;12.80;7.70;;;;;;;4.94;100.00;101211.94;5023087;28;20076;-43
2024/02/02 01:29:03;;;;;;;11.60;7.30;;;;;;;5.00;100.00;101225.00;5025055;28;20049;-43
2024/02/02 01:31:31;;;;;;;11.18;7.07;;;;;;;5.10;100.00;101218.59;5008428;28;20049;-47
2024/02/02 01:34:01;;;;;;;11.90;7.60;;;;;;;5.08;100.00;101217.78;5023570;28;20100;-42
2024/02/02 01:36:31;;;;;;;13.52;7.38;;;;;;;5.06;100.00;101213.44;5023887;28;20038;-45
2024/02/02 01:38:59;;;;;;;13.93;7.55;;;;;;;5.12;100.00;101203.59;5024136;28;20045;-45
2024/02/02 01:41:27;;;;;;;11.18;6.95;;;;;;;5.06;100.00;101202.84;5025366;28;20521;-41
2024/02/02 01:43:56;;;;;;;11.40;6.72;;;;;;;5.02;100.00;101211.72;5026299;28;20111;-42
2024/02/02 01:46:24;;;;;;;13.55;7.40;;;;;;;5.02;100.00;101212.63;5038810;28;20045;-44
2024/02/02 01:48:53;;;;;;;14.60;7.10;;;;;;;4.98;100.00;101213.59;5033610;28;20053;-45
2024/02/02 01:51:21;;;;;;;11.57;6.70;;;;;;;5.03;100.00;101205.56;5033269;28;20064;-41
2024/02/02 01:53:51;;;;;;;13.57;6.78;;;;;;;5.03;100.00;101227.59;5033317;28;20099;-43
2024/02/02 01:56:20;;;;;;;9.93;6.30;;;;;;;4.87;100.00;101226.19;5033381;28;20383;-45
2024/02/02 01:58:50;;;;;;;12.15;6.63;;;;;;;5.01;100.00;101220.56;5033352;28;20380;-43
2024/02/02 02:01:19;;;;;;;13.45;7.15;;;;;;;4.91;100.00;101217.25;5033325;28;20111;-45
2024/02/02 02:03:47;;;;;;;11.40;6.65;;;;;;;4.93;100.00;101215.47;5033410;28;20121;-43
2024/02/02 02:06:16;;;;;;;11.43;6.55;;;;;;;4.95;100.00;101202.22;5033407;28;20050;-43
2024/02/02 02:08:46;;;;;;;11.00;6.05;;;;;;;4.99;100.00;101190.66;5033477;28;20056;-46
2024/02/02 02:11:16;;;;;;;11.25;5.97;;;;;;;4.98;100.00;101196.84;5033141;28;20056;-44
2024/02/02 02:13:45;;;;;;;10.77;6.38;;;;;;;5.04;100.00;101197.59;5033037;28;20363;-43
2024/02/02 02:16:13;;;;;;;12.45;5.90;;;;;;;5.00;100.00;101202.97;5033016;28;20068;-44
2024/02/02 02:18:42;;;;;;;10.98;6.07;;;;;;;5.00;100.00;101202.97;5032779;28;20481;-42
2024/02/02 02:21:27;;;;;;;10.52;5.80;;;;;;;5.07;100.00;101202.81;5033113;28;20055;-42
2024/02/02 02:23:56;;;;;;;11.25;6.35;;;;;;;5.06;100.00;101200.19;5032883;28;20041;-43
2024/02/02 02:26:26;;;;;;;11.70;5.95;;;;;;;5.13;100.00;101202.69;5032809;28;20076;-42
2024/02/02 02:28:54;;;;;;;10.75;5.72;;;;;;;5.04;100.00;101200.25;5032661;28;20132;-44
2024/02/02 02:31:23;;;;;;;10.75;5.78;;;;;;;4.99;100.00;101201.22;5031726;28;20146;-43
2024/02/02 02:33:51;;;;;;;11.07;5.68;;;;;;;4.93;100.00;101198.75;5032471;28;20056;-43
2024/02/02 02:36:21;;;;;;;11.38;5.57;;;;;;;4.87;100.00;101205.03;5032739;28;20045;-43
2024/02/02 02:38:51;;;;;;;10.18;5.70;;;;;;;4.86;100.00;101209.44;5032628;28;20046;-43
2024/02/02 02:41:20;;;;;;;10.18;5.05;;;;;;;4.97;100.00;101210.97;5032429;28;20050;-44
2024/02/02 02:43:48;;;;;;;10.35;5.60;;;;;;;4.94;100.00;101211.06;5032174;28;20417;-42
2024/02/02 02:46:16;;;;;;;11.63;5.70;;;;;;;4.91;100.00;101219.03;5031952;28;20117;-43
2024/02/02 02:48:45;;;;;;;12.23;5.82;;;;;;;4.80;100.00;101214.84;5032369;28;20049;-43
2024/02/02 02:51:13;;;;;;;9.95;5.40;;;;;;;4.91;100.00;101217.25;5032469;28;20415;-43
2024/02/02 02:53:42;;;;;;;11.90;5.80;;;;;;;4.87;100.00;101215.59;5032092;28;20398;-41
2024/02/02 02:56:12;;;;;;;12.13;5.82;;;;;;;4.96;100.00;101210.13;5032144;28;20073;-46
2024/02/02 02:58:40;;;;;;;13.65;5.80;;;;;;;4.86;100.00;101209.44;5031962;28;20152;-43
2024/02/02 03:01:09;;;;;;;11.65;5.72;;;;;;;4.87;100.00;101205.03;5032194;28;20045;-43
2024/02/02 03:03:37;;;;;;;10.27;5.22;;;;;;;4.88;100.00;101209.41;5032156;28;20080;-43
2024/02/02 03:06:06;;;;;;;8.35;4.90;;;;;;;4.97;100.00;101216.28;5031961;28;20067;-42
2024/02/02 03:08:34;;;;;;;9.38;4.90;;;;;;;4.87;100.00;101210.31;5031795;28;20045;-43
2024/02/02 03:11:03;;;;;;;11.55;5.22;;;;;;;4.91;100.00;101217.25;5031932;28;20608;-44
2024/02/02 03:13:33;;;;;;;8.38;4.82;;;;;;;4.96;100.00;101210.13;5031785;28;20041;-43
2024/02/02 03:16:01;;;;;;;12.73;5.07;;;;;;;4.83;100.00;101213.94;5031968;28;20049;-44
2024/02/02 03:18:30;;;;;;;9.73;5.18;;;;;;;4.76;100.00;101229.03;5032070;28;20042;-44
2024/02/02 03:20:58;;;;;;;10.95;4.53;;;;;;;4.68;100.00;101227.47;5032229;28;20132;-44
2024/02/02 03:23:26;;;;;;;12.57;4.82;;;;;;;4.70;100.00;101223.00;5032719;28;20068;-45
2024/02/02 03:25:55;;;;;;;9.50;4.80;;;;;;;4.58;100.00;101221.50;5032393;28;20483;-43
2024/02/02 03:28:23;;;;;;;9.52;5.00;;;;;;;4.47;100.00;101227.00;5033896;28;20045;-44
2024/02/02 03:30:52;;;;;;;11.18;4.85;;;;;;;4.48;100.00;101241.94;5031735;28;20046;-43
2024/02/02 03:33:21;;;;;;;12.25;4.68;;;;;;;4.29;100.00;101233.50;5031532;28;20136;-43
2024/02/02 03:35:50;;;;;;;11.35;5.55;;;;;;;4.49;100.00;101246.31;5033799;28;20041;-44
2024/02/02 03:38:18;;;;;;;10.27;4.90;;;;;;;4.30;100.00;101234.38;5038233;28;20050;-44
2024/02/02 03:40:46;;;;;;;11.27;5.00;;;;;;;4.22;100.00;101242.41;5038372;28;20162;-42
2024/02/02 03:43:15;;;;;;;9.98;4.80;;;;;;;4.22;100.00;101237.13;5031159;28;20103;-43
2024/02/02 03:45:43;;;;;;;7.13;4.40;;;;;;;4.34;100.00;101236.03;5020436;28;20045;-43
2024/02/02 03:48:13;;;;;;;10.40;4.68;;;;;;;4.39;100.00;101249.16;5031317;28;20045;-41
2024/02/02 03:50:41;;;;;;;9.35;4.50;;;;;;;4.35;100.00;101245.72;5031195;28;20049;-42
2024/02/02 03:53:12;;;;;;;12.40;4.78;;;;;;;4.34;100.00;101251.00;5031317;28;20045;-43
2024/02/02 03:55:41;;;;;;;13.27;4.60;;;;;;;4.36;100.00;101258.03;5031453;28;20136;-43
2024/02/02 03:58:09;;;;;;;8.30;4.43;;;;;;;4.34;100.00;101256.28;5031059;28;20053;-46
2024/02/02 04:00:38;;;;;;;9.85;4.85;;;;;;;4.23;100.00;101265.28;5031313;28;20045;-43
2024/02/02 04:03:06;;;;;;;9.27;4.30;;;;;;;4.23;100.00;101261.78;5031080;28;20064;-44
2024/02/02 04:05:36;;;;;;;8.95;4.47;;;;;;;4.28;100.00;101262.56;5031126;28;20049;-43
2024/02/02 04:08:06;;;;;;;11.63;4.60;;;;;;;4.29;100.00;101253.75;5031366;28;20111;-44
2024/02/02 04:10:34;;;;;;;13.52;5.82;;;;;;;4.09;100.00;101261.16;5031119;28;20080;-44
2024/02/02 04:13:03;;;;;;;11.95;5.47;;;;;;;4.06;100.00;101262.09;5033636;28;20053;-46
2024/02/02 04:15:31;;;;;;;11.20;5.85;;;;;;;4.09;100.00;101266.44;5035010;28;20486;-43
2024/02/02 04:18:01;;;;;;;14.70;5.80;;;;;;;3.93;100.00;101271.97;5039516;28;20046;-44
2024/02/02 04:20:29;;;;;;;12.93;5.35;;;;;;;3.98;100.00;101269.28;5041440;28;20087;-42
2024/02/02 04:22:59;;;;;;;10.82;5.03;;;;;;;3.97;100.00;101262.25;5041605;28;20042;-43
2024/02/02 04:25:28;;;;;;;11.55;5.30;;;;;;;3.84;100.00;101272.13;5041276;28;20500;-42
2024/02/02 04:27:56;;;;;;;10.32;5.05;;;;;;;3.90;100.00;101263.25;5040910;28;20052;-41
2024/02/02 04:30:24;;;;;;;12.32;5.00;;;;;;;3.89;100.00;101265.03;5039434;28;20041;-42
2024/02/02 04:32:53;;;;;;;10.63;5.00;;;;;;;3.84;100.00;101264.22;5050498;28;20053;-43
2024/02/02 04:35:23;;;;;;;11.70;4.78;;;;;;;3.85;100.00;101263.31;5050374;28;20087;-44
2024/02/02 04:37:52;;;;;;;8.98;4.03;;;;;;;3.80;100.00;101269.56;5031420;28;20045;-43
2024/02/02 04:40:21;;;;;;;12.18;5.60;;;;;;;3.86;100.00;101265.06;5030636;28;20052;-43
2024/02/02 04:42:50;;;;;;;11.60;4.57;;;;;;;3.94;100.00;101265.78;5030570;28;20081;-42
2024/02/02 04:45:19;;;;;;;14.65;4.63;;;;;;;3.96;100.00;101261.38;5032855;28;20046;-42
2024/02/02 04:47:47;;;;;;;9.55;4.10;;;;;;;3.88;100.00;101260.63;5034257;28;20053;-43
2024/02/02 04:50:16;;;;;;;9.43;4.43;;;;;;;3.95;100.00;101262.25;5035124;28;20049;-42
2024/02/02 04:52:47;;;;;;;9.30;4.50;;;;;;;3.95;100.00;101264.91;5034356;28;20076;-43
2024/02/02 04:55:15;;;;;;;9.30;4.57;;;;;;;4.03;100.00;101268.28;5032424;28;20430;-41
2024/02/02 04:57:45;;;;;;;10.50;4.75;;;;;;;4.07;100.00;101257.69;5034528;28;20073;-42
2024/02/02 05:00:14;;;;;;;11.57;4.68;;;;;;;4.11;100.00;101267.28;5034833;28;20129;-44
2024/02/02 05:02:43;;;;;;;7.70;4.38;;;;;;;4.14;100.00;101270.72;5034265;28;20053;-43
2024/02/02 05:05:11;;;;;;;17.23;4.47;;;;;;;4.14;100.00;101273.38;5033806;28;20498;-42
2024/02/02 05:07:40;;;;;;;10.73;4.57;;;;;;;4.27;100.00;101269.63;5034014;28;20152;-43
2024/02/02 05:10:09;;;;;;;8.48;4.50;;;;;;;4.30;100.00;101273.97;5034032;28;20417;-44
2024/02/02 05:12:38;;;;;;;12.07;4.28;;;;;;;4.20;100.00;101267.13;5033862;28;20053;-43
2024/02/02 05:15:08;;;;;;;11.93;4.70;;;;;;;4.29;100.00;101264.31;5049252;28;20053;-43
2024/02/02 05:17:36;;;;;;;11.38;4.72;;;;;;;4.23;100.00;101272.34;5033647;28;20080;-43
2024/02/02 05:20:07;;;;;;;7.97;4.30;;;;;;;4.21;100.00;101276.78;5034049;28;20112;-43
2024/02/02 05:22:35;;;;;;;14.38;4.93;;;;;;;4.35;100.00;101266.84;5033972;28;20046;-43
2024/02/02 05:25:05;;;;;;;10.70;5.07;;;;;;;4.42;100.00;101273.75;5034336;28;20166;-44
2024/02/02 05:27:33;;;;;;;13.10;4.57;;;;;;;4.34;100.00;101278.28;5034032;28;20500;-43
2024/02/02 05:30:01;;;;;;;10.27;4.05;;;;;;;4.36;100.00;101276.53;5033614;28;20046;-43
2024/02/02 05:32:31;;;;;;;12.65;4.28;;;;;;;4.39;100.00;101289.66;5015826;28;20053;-44
2024/02/02 05:34:59;;;;;;;13.80;4.10;;;;;;;4.32;100.00;101304.75;5033629;28;20057;-43
2024/02/02 05:37:28;;;;;;;10.15;4.53;;;;;;;4.11;100.00;101304.25;5033258;28;20041;-42
2024/02/02 05:39:56;;;;;;;11.65;4.00;;;;;;;4.06;100.00;101306.13;5033552;28;20048;-44
2024/02/02 05:42:25;;;;;;;11.95;4.10;;;;;;;4.01;100.00;101309.69;5033284;28;20099;-42
2024/02/02 05:44:53;;;;;;;10.30;3.92;;;;;;;4.00;100.00;101310.59;5033753;28;20133;-43
2024/02/02 05:47:22;;;;;;;9.15;4.07;;;;;;;4.02;100.00;101310.56;5034318;28;20430;-42
2024/02/02 05:49:51;;;;;;;13.20;3.75;;;;;;;3.92;100.00;101312.47;5037900;28;20108;-43
2024/02/02 05:52:20;;;;;;;9.63;3.88;;;;;;;3.92;100.00;101317.75;5033594;28;20479;-43
2024/02/02 05:54:48;;;;;;;10.18;4.57;;;;;;;3.86;100.00;101317.88;5033269;28;20376;-45
2024/02/02 05:57:17;;;;;;;13.18;4.20;;;;;;;3.86;100.00;101331.06;5033058;28;20068;-43
2024/02/02 05:59:45;;;;;;;10.02;4.22;;;;;;;3.94;100.00;101329.16;5033033;28;20418;-45
2024/02/02 06:02:14;;;;;;;11.48;5.13;;;;;;;3.98;100.00;101336.13;5033270;28;20099;-42
2024/02/02 06:04:43;;;;;;;11.95;4.47;;;;;;;3.93;100.00;101340.59;5032856;28;20072;-43
2024/02/02 06:07:13;;;;;;;12.75;4.90;;;;;;;3.95;100.00;101344.09;5031980;28;20045;-43
2024/02/02 06:09:42;;;;;;;11.30;5.20;;;;;;;3.91;100.00;101355.59;5033524;28;20128;-43
2024/02/02 06:12:10;;;;;;;10.30;4.85;;;;;;;3.90;100.00;101351.22;5032823;28;20401;-42
2024/02/02 06:14:39;;;;;;;10.15;4.50;;;;;;;3.85;100.00;101358.31;5032811;28;20054;-42
2024/02/02 06:17:10;;;;;;;10.30;4.47;;;;;;;3.89;100.00;101352.13;5032614;28;20258;-45
2024/02/02 06:19:41;;;;;;;13.27;5.13;;;;;;;3.98;100.00;101354.63;5032720;28;20414;-44
2024/02/02 06:22:10;;;;;;;11.45;4.80;;;;;;;3.89;100.00;101356.53;5032686;28;20049;-44
2024/02/02 06:24:39;;;;;;;10.82;5.43;;;;;;;3.91;100.00;101342.41;5032374;28;20136;-43
2024/02/02 06:27:08;;;;;;;14.80;5.28;;;;;;;3.97;100.00;101325.63;5032433;28;20153;-41
2024/02/02 06:29:36;;;;;;;11.73;4.68;;;;;;;3.87;100.00;101356.56;5032450;28;20456;-43
2024/02/02 06:32:06;;;;;;;14.27;5.00;;;;;;;3.89;100.00;101360.03;5032007;28;20045;-43
2024/02/02 06:34:37;;;;;;;14.55;5.10;;;;;;;3.82;100.00;101374.22;5032615;28;20103;-42
2024/02/02 06:37:06;;;;;;;9.20;4.30;;;;;;;3.87;100.00;101372.41;5032140;28;20064;-44
2024/02/02 06:39:34;;;;;;;12.10;4.38;;;;;;;3.95;100.00;101378.41;5032027;28;20067;-43
2024/02/02 06:42:05;;;;;;;11.40;4.70;;;;;;;3.93;100.00;101368.78;5031936;28;20172;-43
2024/02/02 06:44:35;;;;;;;10.95;4.22;;;;;;;3.93;100.00;101374.06;5037010;28;20059;-41
2024/02/02 06:47:04;;;;;;;10.05;4.45;;;;;;;3.93;100.00;101367.00;5042802;28;20044;-44
2024/02/02 06:49:32;;;;;;;10.90;4.65;;;;;;;4.06;100.00;101367.72;5039214;28;20045;-42
2024/02/02 06:52:01;;;;;;;9.05;4.32;;;;;;;4.10;100.00;101372.03;5041022;28;20060;-42
2024/02/02 06:54:30;;;;;;;9.48;4.75;;;;;;;4.20;100.00;101375.41;5038283;28;20461;-43
2024/02/02 06:56:59;;;;;;;12.45;4.60;;;;;;;4.24;100.00;101377.94;5043879;28;20045;-43
2024/02/02 06:59:29;;;;;;;9.32;4.85;;;;;;;4.22;100.00;101384.16;5040660;28;20048;-43
2024/02/02 07:01:58;;;;;;;10.35;4.10;;;;;;;4.25;100.00;101390.28;5052064;28;20098;-42
2024/02/02 07:04:27;;;;;;;10.02;4.38;;;;;;;4.40;100.00;101383.88;5051654;28;20049;-43
2024/02/02 07:06:55;;;;;;;8.88;4.20;;;;;;;4.39;100.00;101397.97;5051884;28;20505;-41
2024/02/02 07:09:29;;;;;;;8.30;4.13;;;;;;;4.42;100.00;101395.28;5043766;28;20045;-43
2024/02/02 07:12:04;;;;;;;10.57;4.68;;;;;;;4.66;100.00;101403.69;5038329;28;20049;-43
2024/02/02 07:14:46;;;;;;;12.32;4.38;;;;;;;4.53;100.00;101405.66;5045647;28;20041;-43
2024/02/02 07:17:22;;;;;;;7.13;3.80;;;;;;;4.29;100.00;101402.53;5043507;28;20072;-41
2024/02/02 07:19:53;;;;;;;13.23;4.45;;;;;;;4.63;100.00;101401.94;5041730;28;20048;-42
2024/02/02 07:22:32;;;;;;;14.82;4.38;;;;;;;4.48;100.00;101403.09;5051352;28;20497;-43
2024/02/02 07:25:01;;;;;;;11.63;5.03;;;;;;;4.65;100.00;101404.59;5051275;28;20470;-44
2024/02/02 07:27:55;;;;;;;10.50;4.50;;;;;;;4.68;100.00;101399.25;5051393;28;20132;-42
2024/02/02 07:30:59;;;;;;;9.40;4.47;;;;;;;4.90;100.00;101405.88;5048431;28;20041;-42
2024/02/02 07:33:34;;;;;;;9.15;4.05;;;;;;;4.75;100.00;101401.75;4970157;28;20043;-44
2024/02/02 07:36:04;;;;;;;12.05;4.40;;;;;;;4.89;100.00;101414.72;4970190;28;20046;-44
2024/02/02 07:38:49;;;;;;;10.43;4.22;;;;;;;4.84;100.00;101416.59;5013571;28;20135;-43
2024/02/02 07:41:20;;;;;;;12.05;4.32;;;;;;;4.80;100.00;101415.75;5051250;28;20049;-43
2024/02/02 07:43:48;;;;;;;9.88;3.88;;;;;;;4.83;100.00;101422.78;5047856;28;20064;-42
2024/02/02 07:46:18;;;;;;;12.27;4.10;;;;;;;4.92;100.00;101419.94;5048324;28;20081;-44
2024/02/02 07:48:48;;;;;;;8.82;3.90;;;;;;;4.76;100.00;101418.50;5051168;28;20480;-42
2024/02/02 07:51:17;;;;;;;8.35;3.63;;;;;;;4.82;100.00;101431.56;5051014;28;20080;-43
2024/02/02 07:53:46;;;;;;;10.52;4.03;;;;;;;4.98;100.00;101424.25;5051193;28;20052;-43
2024/02/02 07:56:15;;;;;;;9.63;4.03;;;;;;;4.97;100.00;101425.16;5050449;28;20506;-44
2024/02/02 07:58:43;;;;;;;12.75;4.22;;;;;;;5.00;100.00;101427.72;5050806;28;20055;-41
2024/02/02 08:01:12;;;;;;;11.70;3.90;;;;;;;5.13;100.00;101430.13;5031206;28;20052;-42
2024/02/02 08:03:42;;;;;;;10.85;4.63;;;;;;;5.29;100.00;101413.94;5030487;28;20042;-48
2024/02/02 08:06:10;;;;;;;10.98;4.07;;;;;;;5.46;100.00;101418.00;5030804;28;20045;-41
2024/02/02 08:08:39;;;;;;;10.80;4.30;;;;;;;5.37;100.00;101406.72;5030806;28;20049;-43
2024/02/02 08:11:07;;;;;;;11.45;3.92;;;;;;;5.16;100.00;101408.91;5030750;28;20081;-45
2024/02/02 08:13:36;;;;;;;17.80;4.32;;;;;;;5.11;100.00;101410.75;5030599;28;20060;-44
2024/02/02 08:16:05;;;;;;;12.98;4.47;;;;;;;4.99;100.00;101397.78;5030351;28;20053;-43
2024/02/02 08:18:34;;;;;;;11.60;3.83;;;;;;;5.03;100.00;101395.97;5030402;28;20049;-44
2024/02/02 08:21:04;;;;;;;11.25;3.75;;;;;;;5.10;100.00;101382.56;5030997;28;20086;-42
2024/02/02 08:23:32;;;;;;;12.57;4.32;;;;;;;5.26;100.00;101398.16;5030700;28;20461;-42
2024/02/02 08:26:01;;;;;;;11.60;4.07;;;;;;;5.22;100.00;101392.06;5030559;28;20052;-42
2024/02/02 08:28:30;;;;;;;11.35;4.13;;;;;;;5.40;100.00;101383.75;5030577;28;20061;-46
2024/02/02 08:31:12;;;;;;;12.27;4.45;;;;;;;5.29;100.00;101401.59;5033956;28;20045;-44
2024/02/02 08:33:43;;;;;;;12.48;4.00;;;;;;;5.36;100.00;101415.56;5034485;28;20049;-42
2024/02/02 08:36:13;;;;;;;10.20;3.45;;;;;;;5.10;100.00;101413.44;5034490;28;20422;-43
2024/02/02 08:38:41;;;;;;;11.45;3.63;;;;;;;5.16;100.00;101430.06;5034484;28;20471;-41
2024/02/02 08:41:11;;;;;;;12.57;3.67;;;;;;;5.14;100.00;101413.38;5034398;28;20061;-42
2024/02/02 08:43:41;;;;;;;14.55;4.43;;;;;;;5.27;100.00;101427.22;5034299;28;20140;-43
2024/02/02 08:46:12;;;;;;;11.07;4.13;;;;;;;5.30;100.00;101420.97;5034898;28;20053;-43
2024/02/02 08:48:45;;;;;;;15.23;4.15;;;;;;;5.11;100.00;101420.47;5034527;28;20042;-43
2024/02/02 08:51:49;;;;;;;9.63;3.90;;;;;;;5.34;100.00;101415.63;5034534;28;20049;-44
2024/02/02 08:54:36;;;;;;;14.63;3.78;;;;;;;5.32;100.00;101419.19;5034121;28;20049;-46
2024/02/02 08:57:36;;;;;;;10.80;3.88;;;;;;;5.26;100.00;101417.53;5033997;28;20128;-43
2024/02/02 09:00:35;;;;;;;12.32;3.83;;;;;;;5.35;100.00;101422.66;5033815;28;20056;-42
2024/02/02 09:03:17;;;;;;;11.02;3.63;;;;;;;5.27;100.00;101415.75;5034063;28;20049;-41
2024/02/02 09:05:53;;;;;;;12.95;4.03;;;;;;;5.46;100.00;101409.19;5036616;28;20051;-44
2024/02/02 09:08:37;;;;;;;12.52;4.25;;;;;;;5.54;100.00;101420.50;5013941;28;20104;-42
2024/02/02 09:11:22;;;;;;;11.57;3.88;;;;;;;5.55;100.00;101421.38;5028954;28;20042;-41
2024/02/02 09:14:01;;;;;;;11.60;4.03;;;;;;;5.51;100.00;101420.56;5034012;28;20049;-44
2024/02/02 09:16:39;;;;;;;11.80;3.72;;;;;;;5.43;100.00;101433.09;5033919;28;20071;-44
2024/02/02 09:19:17;;;;;;;14.20;4.07;;;;;;;5.54;100.00;101433.72;5033944;28;20045;-44
2024/02/02 09:21:45;;;;;;;12.20;4.13;;;;;;;5.69;100.00;101428.13;5033857;28;20064;-42
2024/02/02 09:24:28;;;;;;;14.73;4.20;;;;;;;5.77;100.00;101438.53;5033972;28;20137;-43
2024/02/02 09:26:58;;;;;;;13.40;4.20;;;;;;;5.89;100.00;101440.06;5033750;28;20418;-40
2024/02/02 09:29:26;;;;;;;12.85;3.95;;;;;;;5.75;100.00;101451.81;5033599;28;20060;-42
2024/02/02 09:31:55;;;;;;;11.70;4.20;;;;;;;5.75;100.00;101457.09;5033533;28;20643;-43
2024/02/02 09:34:27;;;;;;;10.57;3.80;;;;;;;5.87;100.00;101444.50;5033586;28;20080;-42
2024/02/02 09:36:56;;;;;;;11.13;4.07;;;;;;;5.87;100.00;101449.78;5033374;28;20045;-43
2024/02/02 09:39:54;;;;;;;11.73;4.40;;;;;;;5.98;100.00;101450.47;5033602;28;20450;-43
2024/02/02 09:42:47;;;;;;;13.20;3.95;;;;;;;5.71;100.00;101459.84;5024676;28;20505;-44
2024/02/02 09:45:25;;;;;;;10.83;4.13;;;;;;;5.91;100.00;101456.81;5033463;28;20505;-44
2024/02/02 09:48:06;;;;;;;11.32;4.10;;;;;;;5.86;100.00;101445.41;5033453;28;20111;-43
2024/02/02 09:50:45;;;;;;;15.20;4.45;;;;;;;6.07;100.00;101447.59;5033076;28;20505;-43
2024/02/02 09:53:38;;;;;;;13.10;3.78;;;;;;;5.94;100.00;101446.16;5033220;28;20485;-43
2024/02/02 09:56:13;;;;;;;14.75;3.95;;;;;;;6.01;100.00;101445.13;5033177;28;20046;-43
2024/02/02 09:58:47;;;;;;;8.40;4.22;;;;;;;5.88;100.00;101448.88;5033310;28;20466;-43
2024/02/02 10:01:33;;;;;;;14.00;4.45;;;;;;;6.10;100.00;101458.16;5033144;28;20045;-42
2024/02/02 10:04:16;;;;;;;15.30;4.80;;;;;;;6.24;100.00;101449.88;5034106;28;20073;-41
2024/02/02 10:06:56;;;;;;;15.57;4.07;;;;;;;6.22;100.00;101447.25;5032861;28;20072;-42
2024/02/02 10:09:48;;;;;;;14.88;4.30;;;;;;;6.46;100.00;101451.09;5032693;28;20045;-42
2024/02/02 10:12:31;;;;;;;16.33;4.70;;;;;;;6.43;100.00;101459.13;5032968;28;20119;-42
2024/02/02 10:15:30;;;;;;;15.00;5.05;;;;;;;6.40;100.00;101451.25;5015282;28;20049;-42
2024/02/02 10:18:25;;;;;;;14.85;4.22;;;;;;;6.58;100.00;101452.59;5032818;28;20147;-42
2024/02/02 10:20:59;;;;;;;8.57;4.13;;;;;;;6.47;100.00;101441.41;5032500;28;20045;-43
2024/02/02 10:23:58;;;;;;;9.43;3.83;;;;;;;6.52;100.00;101434.19;5032395;28;20061;-43
2024/02/02 10:27:01;;;;;;;10.40;3.22;;;;;;;6.45;100.00;101437.88;5032288;28;20045;-45
2024/02/02 10:29:43;;;;;;;12.98;4.03;;;;;;;6.53;100.00;101446.53;5032399;28;20054;-43
2024/02/02 10:32:31;;;;;;;11.82;3.70;;;;;;;6.56;100.00;101442.03;5032189;28;20045;-42
2024/02/02 10:35:15;;;;;;;15.80;3.50;;;;;;;6.68;100.00;101435.56;5031984;28;20490;-41
2024/02/02 10:37:50;;;;;;;14.68;3.80;;;;;;;6.32;100.00;101427.59;5032281;28;20501;-44
2024/02/02 10:40:33;;;;;;;13.00;4.13;;;;;;;6.51;100.00;101429.78;5032252;28;20191;-42
2024/02/02 10:43:19;;;;;;;;;;;;;;;6.48;100.00;101424.59;5032522;28;20095;-41
2024/02/02 10:46:02;;;;;;;12.85;3.97;;;;;;;6.60;100.00;101435.75;5032539;28;19928;-42
2024/02/02 10:48:46;;;;;;;11.13;3.38;;;;;;;6.46;100.00;101434.31;5032436;28;20045;-43
2024/02/02 10:51:28;;;;;;;9.73;3.75;;;;;;;6.59;100.00;101425.19;5032029;28;20049;-43
2024/02/02 10:54:11;;;;;;;11.48;3.55;;;;;;;6.38;100.00;101421.28;5031181;28;20441;-43
2024/02/02 10:56:53;;;;;;;12.90;3.53;;;;;;;6.49;100.00;101413.06;5031555;28;20394;-43
2024/02/02 10:59:34;;;;;;;10.48;3.53;;;;;;;6.38;100.00;101415.13;5031597;28;20052;-44
2024/02/02 11:02:15;;;;;;;12.13;3.72;;;;;;;6.56;100.00;101414.63;5032273;28;20050;-44
2024/02/02 11:04:56;;;;;;;11.35;4.30;;;;;;;6.50;100.00;101404.19;5033283;28;20134;-46
2024/02/02 11:07:28;;;;;;;11.82;3.92;;;;;;;6.47;100.00;101409.59;5034517;28;20132;-43
2024/02/02 11:09:58;;;;;;;11.05;4.25;;;;;;;6.43;100.00;101405.25;5033394;28;20140;-47
2024/02/02 11:12:37;;;;;;;10.70;3.90;;;;;;;6.53;100.00;101399.69;5034344;28;20049;-43
2024/02/02 11:15:20;;;;;;;14.63;3.80;;;;;;;6.59;100.00;101391.59;5033534;28;20056;-44
2024/02/02 11:18:06;;;;;;;17.20;4.32;;;;;;;6.40;100.00;101392.09;5031921;28;20081;-42
2024/02/02 11:20:47;;;;;;;12.35;4.05;;;;;;;6.55;100.00;101389.03;5032287;28;20151;-42
2024/02/02 11:23:28;;;;;;;11.13;3.78;;;;;;;6.65;100.00;101390.53;5031778;28;20053;-46
2024/02/02 11:26:04;;;;;;;11.65;4.03;;;;;;;6.81;100.00;101389.25;5031733;28;20053;-46
2024/02/02 11:28:40;;;;;;;13.48;3.80;;;;;;;6.78;100.00;101386.69;5031433;28;20055;-43
2024/02/02 11:31:18;;;;;;;14.90;4.18;;;;;;;6.83;100.00;101382.09;5031518;28;20047;-43
2024/02/02 11:33:58;;;;;;;13.95;4.40;;;;;;;6.83;100.00;101390.06;5031404;28;20152;-43
2024/02/02 11:36:43;;;;;;;11.80;4.55;;;;;;;6.96;100.00;101392.41;5031222;28;20041;-42
2024/02/02 11:39:23;;;;;;;9.00;3.70;;;;;;;7.03;100.00;101389.53;5031195;28;20052;-42
2024/02/02 11:41:52;;;;;;;15.15;4.30;;;;;;;7.10;100.00;101387.56;5031316;28;20046;-44
2024/02/02 11:44:21;;;;;;;10.90;4.35;;;;;;;7.17;100.00;101375.88;5030966;28;20060;-43